This is the latest recevied weather packets stored in our database for station/object N6OL. If no packets are shown the sender has not sent any weather packets the latest 10 day(s).
| Time | Temp. | Humidity | Pressure | Rain* | Wind** | Luminosity | Snow |
|---|---|---|---|---|---|---|---|
| 1778107803 | 18.33° C | 71% | 1018.1 hPa | 0 mm | - | 643 W/m² | - |
| 1778106603 | 18.89° C | 71% | 1018.5 hPa | 0 mm | - | 682 W/m² | - |
| 1778105103 | 18.33° C | 71% | 1018.6 hPa | 0 mm | - | 726 W/m² | - |
| 1778104203 | 18.89° C | 70% | 1018.6 hPa | 0 mm | - | 749 W/m² | - |
| 1778103324 | 19.44° C | 69% | 1018.8 hPa | 0 mm | - | 766 W/m² | - |
| 1778103003 | 18.89° C | 70% | 1018.8 hPa | 0 mm | - | 772 W/m² | - |
| 1778102703 | 19.44° C | 68% | 1019 hPa | 0 mm | - | 780 W/m² | - |
| 1778101803 | 20.56° C | 66% | 1019 hPa | 0 mm | - | 791 W/m² | - |
| 1778100903 | 20.56° C | 65% | 1019 hPa | 0 mm | - | 805 W/m² | - |
| 1778099103 | 20° C | 66% | 1019.4 hPa | 0 mm | - | 814 W/m² | - |
| 1778098503 | 20° C | 67% | 1019.5 hPa | 0 mm | - | 816 W/m² | - |
| 1778096103 | 19.44° C | 67% | 1019.9 hPa | 0 mm | - | 809 W/m² | - |
| 1778095203 | 18.89° C | 67% | 1020 hPa | 0 mm | - | 798 W/m² | - |
| 1778093103 | 18.89° C | 68% | 1020.3 hPa | 0 mm | - | 761 W/m² | - |
| 1778091903 | 18.33° C | 69% | 1020.3 hPa | 0 mm | - | 737 W/m² | - |
| 1778091303 | 18.33° C | 71% | 1020.3 hPa | 0 mm | - | 719 W/m² | - |
| 1778090403 | 17.78° C | 72% | 1020.3 hPa | 0 mm | - | 691 W/m² | - |
| 1778089824 | 17.22° C | 72% | 1020.2 hPa | 0 mm | - | 675 W/m² | - |
| 1778088303 | 16.67° C | 73% | 1020.3 hPa | 0 mm | - | 626 W/m² | - |
| 1778087424 | 16.67° C | 73% | 1020.4 hPa | 0 mm | - | 617 W/m² | - |
| 1778085003 | 16.67° C | 74% | 1020.4 hPa | 0 mm | - | 714 W/m² | - |
| 1778084403 | 15.56° C | 77% | 1020.5 hPa | 0 mm | - | 656 W/m² | - |
| 1778083203 | 15° C | 76% | 1020.5 hPa | 0 mm | - | 288 W/m² | - |
| 1778082303 | 14.44° C | 77% | 1020.5 hPa | 0 mm | - | 181 W/m² | - |
| 1778082024 | 14.44° C | 77% | 1020.5 hPa | 0 mm | - | 171 W/m² | - |
* Rain latest hour (hover to see other rain measurements)
** Current wind speed in m/s (hover to see current wind gust speed)